Time;durP1;ratioP1;P1;durP2;ratioP2;P2;SDS_P1;SDS_P2;PMS_P1;PMS_P2;Temp;Humidity;BMP_temperature;BMP_pressure;BME280_temperature;BME280_humidity;BME280_pressure;Samples;Min_cycle;Max_cycle;Signal;HPM_P1;HPM_P2
2022/07/25 00:02:26;;;;;;;0.98;0.82;;;;;;;26.04;44.37;100552.66;5217838;28;20058;-82
2022/07/25 00:04:57;;;;;;;0.55;0.55;;;;;;;26.01;44.08;100550.25;5241774;28;20033;-83
2022/07/25 00:07:28;;;;;;;0.70;0.70;;;;;;;25.97;44.34;100535.44;5208010;28;20397;-82
2022/07/25 00:10:01;;;;;;;0.68;0.68;;;;;;;25.94;44.51;100538.41;5199449;28;20053;-82
2022/07/25 00:12:36;;;;;;;2.63;1.33;;;;;;;25.91;44.37;100530.63;5185315;28;20072;-82
2022/07/25 00:15:08;;;;;;;0.55;0.55;;;;;;;25.88;44.65;100529.06;5172010;28;20057;-82
2022/07/25 00:17:39;;;;;;;1.70;0.82;;;;;;;25.85;44.81;100528.53;5204607;28;20041;-81
2022/07/25 00:20:10;;;;;;;0.57;0.57;;;;;;;25.82;44.97;100528.84;5200648;28;20059;-82
2022/07/25 00:22:41;;;;;;;3.25;1.08;;;;;;;25.79;44.58;100529.13;5176822;28;20104;-82
2022/07/25 00:25:11;;;;;;;0.50;0.50;;;;;;;25.75;45.02;100526.72;5215488;28;20025;-82
2022/07/25 00:27:42;;;;;;;0.43;0.43;;;;;;;25.70;45.07;100523.63;5247382;28;20096;-81
2022/07/25 00:30:13;;;;;;;0.93;0.93;;;;;;;25.68;44.77;100520.22;5212795;28;20057;-81
2022/07/25 00:32:43;;;;;;;1.13;1.10;;;;;;;25.64;45.32;100518.84;5223059;28;20041;-81
2022/07/25 00:35:14;;;;;;;1.13;1.02;;;;;;;25.60;45.40;100520.97;5218738;28;20760;-82
2022/07/25 00:37:48;;;;;;;1.08;0.98;;;;;;;25.58;44.92;100511.34;5204123;28;20481;-82
2022/07/25 00:40:21;;;;;;;1.77;0.85;;;;;;;25.54;45.46;100515.31;5201575;28;20060;-82
2022/07/25 00:42:52;;;;;;;0.90;0.90;;;;;;;25.50;45.80;100508.53;5212330;28;20087;-82
2022/07/25 00:45:23;;;;;;;0.70;0.60;;;;;;;25.49;45.62;100509.53;5199342;28;20045;-82
2022/07/25 00:47:53;;;;;;;2.63;1.98;;;;;;;25.44;45.82;100508.13;5203562;28;20028;-82
2022/07/25 00:50:24;;;;;;;0.30;0.30;;;;;;;25.41;45.29;100511.09;5190041;28;20045;-82
2022/07/25 00:52:57;;;;;;;1.17;1.02;;;;;;;25.38;45.73;100508.66;5172831;28;20040;-82
2022/07/25 00:55:28;;;;;;;1.42;1.33;;;;;;;25.35;45.34;100506.25;5188555;28;20046;-82
2022/07/25 00:57:59;;;;;;;1.23;0.88;;;;;;;25.32;45.55;100505.69;5213493;28;20057;-82
2022/07/25 01:00:35;;;;;;;0.85;0.85;;;;;;;25.27;45.53;100511.50;5233372;28;20060;-82
2022/07/25 01:03:11;;;;;;;0.77;0.77;;;;;;;25.25;45.79;100513.47;5206311;28;20043;-82
2022/07/25 01:05:43;;;;;;;0.70;0.70;;;;;;;25.19;45.73;100511.34;5192852;28;20045;-82
2022/07/25 01:08:13;;;;;;;1.60;1.45;;;;;;;25.16;45.82;100508.97;5197353;28;20297;-82
2022/07/25 01:10:45;;;;;;;0.60;0.60;;;;;;;25.12;45.86;100514.63;5164408;28;20038;-82
2022/07/25 01:13:16;;;;;;;1.17;1.15;;;;;;;25.11;45.63;100512.09;5157506;28;20029;-81
2022/07/25 01:15:46;;;;;;;1.08;0.93;;;;;;;25.06;46.22;100512.50;5192148;28;20588;-81
2022/07/25 01:18:17;;;;;;;1.65;1.25;;;;;;;25.06;45.81;100504.47;5184738;28;20033;-82
2022/07/25 01:20:48;;;;;;;0.95;0.95;;;;;;;25.02;45.91;100502.19;5158938;28;20672;-82
2022/07/25 01:23:20;;;;;;;0.60;0.60;;;;;;;24.97;46.25;100500.75;5165020;28;20030;-82
2022/07/25 01:25:54;;;;;;;0.40;0.40;;;;;;;24.95;46.09;100502.78;5173978;28;20113;-82
2022/07/25 01:28:24;;;;;;;0.90;0.90;;;;;;;24.91;45.89;100492.44;5197336;28;20760;-82
2022/07/25 01:30:55;;;;;;;0.50;0.50;;;;;;;24.90;46.36;100488.06;5173752;28;20038;-82
2022/07/25 01:33:26;;;;;;;0.98;0.90;;;;;;;24.86;46.19;100484.81;5196140;28;20056;-82
2022/07/25 01:35:56;;;;;;;1.42;1.30;;;;;;;24.83;45.79;100487.78;5181752;28;20052;-82
2022/07/25 01:38:27;;;;;;;1.17;1.02;;;;;;;24.80;46.11;100488.91;5175089;28;20041;-82
2022/07/25 01:40:58;;;;;;;1.02;0.98;;;;;;;24.78;45.91;100484.69;5175511;28;20367;-82
2022/07/25 01:43:28;;;;;;;0.65;0.65;;;;;;;24.76;45.93;100486.66;5171335;28;20068;-82
2022/07/25 01:46:05;;;;;;;5.28;1.85;;;;;;;24.69;46.38;100472.94;5167939;28;20050;-82
2022/07/25 01:48:35;;;;;;;1.77;0.75;;;;;;;24.68;46.32;100484.66;5177730;28;20041;-82
2022/07/25 01:51:09;;;;;;;5.05;1.60;;;;;;;24.64;46.67;100489.41;5194959;28;20041;-82
2022/07/25 01:53:39;;;;;;;1.33;0.77;;;;;;;24.63;46.80;100476.16;5157638;28;20660;-81
2022/07/25 01:56:10;;;;;;;0.55;0.55;;;;;;;24.59;46.61;100475.59;5176193;28;20046;-82
2022/07/25 01:58:41;;;;;;;0.70;0.70;;;;;;;24.57;46.53;100480.22;5177655;28;20048;-82
2022/07/25 02:01:11;;;;;;;1.17;1.08;;;;;;;24.52;46.56;100471.75;5158681;28;20073;-82
2022/07/25 02:03:42;;;;;;;0.80;0.80;;;;;;;24.48;46.68;100468.50;5177089;28;20048;-82
2022/07/25 02:06:17;;;;;;;1.02;0.82;;;;;;;24.47;46.56;100464.13;5140577;28;20042;-82
2022/07/25 02:08:50;;;;;;;0.75;0.70;;;;;;;24.43;46.68;100460.00;5178638;28;20083;-82
2022/07/25 02:11:21;;;;;;;1.13;1.02;;;;;;;24.42;46.69;100457.47;5179646;28;20034;-82
2022/07/25 02:13:52;;;;;;;0.75;0.75;;;;;;;24.38;46.43;100459.59;5190764;28;20033;-82
2022/07/25 02:16:22;;;;;;;0.80;0.80;;;;;;;24.36;46.67;100451.69;5155756;28;20041;-82
2022/07/25 02:18:53;;;;;;;0.68;0.68;;;;;;;24.34;46.74;100450.97;5186094;28;20049;-82
2022/07/25 02:21:30;;;;;;;0.75;0.75;;;;;;;24.30;46.97;100443.34;5176762;28;20046;-83
2022/07/25 02:24:03;;;;;;;2.90;1.80;;;;;;;24.29;46.91;100445.19;5175101;28;20548;-82
2022/07/25 02:26:43;;;;;;;0.40;0.40;;;;;;;24.28;47.01;100448.84;5167684;28;20056;-81
2022/07/25 02:29:16;;;;;;;1.40;1.10;;;;;;;24.24;46.97;100449.28;5172414;28;20390;-82
2022/07/25 02:31:47;;;;;;;0.73;0.60;;;;;;;24.20;47.23;100443.34;5192189;28;20121;-82
2022/07/25 02:34:18;;;;;;;1.55;0.95;;;;;;;24.18;46.99;100440.78;5166262;28;20021;-82
2022/07/25 02:36:49;;;;;;;1.17;1.08;;;;;;;24.15;47.31;100430.34;5180795;28;20086;-82
2022/07/25 02:39:20;;;;;;;0.47;0.47;;;;;;;24.13;47.33;100435.00;5173659;28;20036;-82
2022/07/25 02:41:51;;;;;;;1.02;0.90;;;;;;;24.09;47.33;100428.19;5156510;28;20048;-82
2022/07/25 02:44:21;;;;;;;0.52;0.52;;;;;;;24.09;47.14;100430.03;5154084;28;20026;-82
2022/07/25 02:46:52;;;;;;;0.60;0.60;;;;;;;24.03;47.49;100428.75;5170918;28;20075;-82
2022/07/25 02:49:23;;;;;;;0.57;0.50;;;;;;;24.02;47.29;100427.03;5172878;28;20726;-82
2022/07/25 02:51:53;;;;;;;1.45;0.95;;;;;;;24.00;47.70;100421.00;5164703;28;20026;-81
2022/07/25 02:54:24;;;;;;;0.80;0.45;;;;;;;23.98;47.60;100420.28;5157874;28;20045;-82
2022/07/25 02:56:57;;;;;;;0.88;0.80;;;;;;;23.94;47.30;100421.53;5148212;28;20070;-82
2022/07/25 02:59:31;;;;;;;1.10;0.65;;;;;;;23.92;47.07;100408.25;5155898;28;20034;-82
2022/07/25 03:02:07;;;;;;;0.85;0.85;;;;;;;23.88;47.65;100410.34;5157266;28;20093;-81
2022/07/25 03:05:13;;;;;;;0.70;0.70;;;;;;;23.88;47.52;100413.03;5143024;28;20487;-82
2022/07/25 03:08:04;;;;;;;;;;;;;;;23.82;47.34;100410.88;5179862;28;20034;-82
2022/07/25 03:14:54;;;;;;;0.68;0.68;;;;;;;23.76;47.48;100402.53;5185909;28;20033;-82
2022/07/25 03:17:28;;;;;;;0.50;0.50;;;;;;;23.72;47.29;100396.59;5206551;28;20037;-82
2022/07/25 03:19:58;;;;;;;5.43;1.67;;;;;;;23.71;47.46;100397.59;5163312;28;20045;-82
2022/07/25 03:22:29;;;;;;;1.73;1.63;;;;;;;23.69;47.76;100386.16;5157576;28;20034;-82
2022/07/25 03:25:03;;;;;;;0.63;0.63;;;;;;;23.65;47.42;100390.09;5152489;28;20037;-82
2022/07/25 03:27:43;;;;;;;1.05;1.00;;;;;;;23.63;47.28;100394.72;5158817;28;20041;-81
2022/07/25 03:30:14;;;;;;;0.93;0.63;;;;;;;23.60;47.80;100393.19;5173985;28;20034;-82
2022/07/25 03:32:45;;;;;;;2.60;1.25;;;;;;;23.57;47.96;100383.59;5162988;28;20032;-81
2022/07/25 03:35:16;;;;;;;0.47;0.47;;;;;;;23.57;47.57;100388.94;5161398;28;20683;-81
2022/07/25 03:37:46;;;;;;;0.77;0.75;;;;;;;23.54;47.77;100385.69;5184888;28;20032;-82
2022/07/25 03:40:17;;;;;;;1.13;1.02;;;;;;;23.51;47.90;100380.59;5162500;28;20050;-82
2022/07/25 03:42:50;;;;;;;0.93;0.88;;;;;;;23.48;47.87;100371.00;5172190;28;20602;-82
2022/07/25 03:45:21;;;;;;;0.93;0.90;;;;;;;23.47;47.99;100377.34;5196925;28;20044;-82
2022/07/25 03:47:51;;;;;;;1.92;0.73;;;;;;;23.45;47.73;100373.94;5160860;28;20040;-82
2022/07/25 03:50:22;;;;;;;4.05;1.25;;;;;;;23.42;47.96;100376.91;5163837;28;20041;-81
2022/07/25 03:52:53;;;;;;;0.40;0.40;;;;;;;23.41;47.96;100381.38;5169231;28;20036;-82
2022/07/25 03:55:24;;;;;;;1.15;1.05;;;;;;;23.38;47.71;100367.44;5154208;28;20050;-82
2022/07/25 03:57:55;;;;;;;0.50;0.50;;;;;;;23.35;47.91;100375.72;5150632;28;20025;-82
2022/07/25 04:00:25;;;;;;;0.68;0.68;;;;;;;23.35;48.04;100373.03;5177211;28;20651;-82
2022/07/25 04:02:56;;;;;;;0.75;0.75;;;;;;;23.34;48.10;100374.03;5154287;28;20826;-82
2022/07/25 04:05:30;;;;;;;0.57;0.57;;;;;;;23.30;48.15;100364.56;5160638;28;20045;-83
2022/07/25 04:08:01;;;;;;;0.60;0.60;;;;;;;23.30;47.99;100364.56;5153613;28;20022;-83
2022/07/25 04:10:39;;;;;;;1.48;1.13;;;;;;;23.26;48.23;100361.31;5182321;28;20056;-82
2022/07/25 04:13:11;;;;;;;1.42;1.35;;;;;;;23.23;48.07;100359.75;5153798;28;20017;-82
2022/07/25 04:15:42;;;;;;;1.65;1.13;;;;;;;23.23;48.25;100357.06;5158204;28;20120;-82
2022/07/25 04:18:13;;;;;;;2.95;1.30;;;;;;;23.21;48.40;100356.34;5191290;28;20041;-82
2022/07/25 04:20:44;;;;;;;1.35;0.90;;;;;;;23.20;47.95;100362.69;5164731;28;20046;-83
2022/07/25 04:23:15;;;;;;;0.68;0.65;;;;;;;23.18;48.25;100351.25;5149600;28;20045;-82
2022/07/25 04:25:46;;;;;;;1.52;1.42;;;;;;;23.18;48.22;100361.97;5159668;28;20041;-83
2022/07/25 04:28:19;;;;;;;0.35;0.35;;;;;;;23.15;48.68;100356.84;5188544;28;20036;-83
2022/07/25 04:30:51;;;;;;;1.58;1.48;;;;;;;23.15;48.60;100354.19;5152705;28;20501;-82
2022/07/25 04:33:21;;;;;;;0.47;0.47;;;;;;;23.13;48.46;100345.44;5151262;28;20571;-82
2022/07/25 04:35:52;;;;;;;1.45;1.33;;;;;;;23.14;48.52;100343.63;5175229;28;20125;-83
2022/07/25 04:38:23;;;;;;;0.90;0.80;;;;;;;23.11;48.61;100331.34;5177946;28;20030;-82
2022/07/25 04:40:54;;;;;;;0.85;0.68;;;;;;;23.13;48.52;100331.22;5155529;28;20042;-82
2022/07/25 04:43:25;;;;;;;1.17;1.00;;;;;;;23.13;48.48;100336.56;5168426;28;20106;-82
2022/07/25 04:45:56;;;;;;;0.30;0.30;;;;;;;23.11;48.66;100324.16;5144299;28;20044;-81
2022/07/25 04:48:30;;;;;;;1.13;1.05;;;;;;;23.12;48.86;100327.69;5152328;28;20056;-81
2022/07/25 04:51:03;;;;;;;1.60;1.17;;;;;;;23.14;48.79;100325.72;5160221;28;20038;-83
2022/07/25 04:53:41;;;;;;;0.40;0.40;;;;;;;23.13;48.65;100324.03;5155462;28;20364;-81
2022/07/25 04:56:12;;;;;;;0.60;0.60;;;;;;;23.14;48.84;100311.50;5160271;28;20042;-82
2022/07/25 04:58:46;;;;;;;1.27;1.17;;;;;;;23.14;48.77;100311.50;5175138;28;20089;-82
2022/07/25 05:01:16;;;;;;;0.40;0.40;;;;;;;23.14;48.93;100311.50;5170930;28;20144;-83
2022/07/25 05:03:47;;;;;;;1.48;1.13;;;;;;;23.15;49.00;100311.38;5158623;28;20492;-82
2022/07/25 05:06:18;;;;;;;2.20;1.08;;;;;;;23.16;49.16;100304.19;5192768;28;20143;-82
2022/07/25 05:08:49;;;;;;;6.40;1.27;;;;;;;23.17;49.17;100301.38;5154881;28;20030;-82
2022/07/25 05:11:19;;;;;;;1.15;0.85;;;;;;;23.16;49.68;100305.03;5175256;28;20061;-81
2022/07/25 05:13:50;;;;;;;1.10;0.88;;;;;;;23.20;49.57;100305.66;5189450;28;20017;-80
2022/07/25 05:16:21;;;;;;;1.45;0.95;;;;;;;23.21;49.44;100302.84;5177996;28;20041;-80
2022/07/25 05:18:51;;;;;;;0.70;0.70;;;;;;;23.24;49.54;100302.56;5159444;28;20398;-81
2022/07/25 05:21:22;;;;;;;0.98;0.93;;;;;;;23.27;49.71;100301.44;5161538;28;20065;-81
2022/07/25 05:23:56;;;;;;;0.90;0.77;;;;;;;23.29;49.70;100299.50;5160828;28;20746;-80
2022/07/25 05:26:26;;;;;;;0.40;0.40;;;;;;;23.31;49.71;100302.03;5177064;28;20179;-80
2022/07/25 05:28:57;;;;;;;1.92;0.90;;;;;;;23.34;49.74;100312.47;5163866;28;20125;-82
2022/07/25 05:31:27;;;;;;;1.00;1.00;;;;;;;23.35;49.90;100298.94;5174275;28;20055;-81
2022/07/25 05:33:58;;;;;;;0.77;0.77;;;;;;;23.38;49.63;100304.03;5158656;28;20025;-81
2022/07/25 05:36:28;;;;;;;2.03;1.15;;;;;;;23.40;49.95;100304.72;5166804;28;20052;-81
2022/07/25 05:38:59;;;;;;;1.92;1.15;;;;;;;23.42;50.49;100302.78;5149658;28;20144;-82
2022/07/25 05:41:30;;;;;;;0.73;0.73;;;;;;;23.45;50.08;100300.81;5148813;28;20433;-81
2022/07/25 05:44:01;;;;;;;1.90;1.55;;;;;;;23.46;50.28;100299.84;5188367;28;20148;-79
2022/07/25 05:46:32;;;;;;;1.15;1.08;;;;;;;23.48;49.88;100298.72;5154906;28;20042;-79
2022/07/25 05:49:03;;;;;;;1.13;0.88;;;;;;;23.49;49.89;100296.88;5159282;28;20109;-80
2022/07/25 05:51:33;;;;;;;0.70;0.60;;;;;;;23.50;49.78;100291.41;5174768;28;20135;-79
2022/07/25 05:54:04;;;;;;;0.70;0.70;;;;;;;23.52;50.10;100294.78;5171181;28;20021;-79
2022/07/25 05:56:35;;;;;;;1.70;1.08;;;;;;;23.56;49.90;100290.84;5170035;28;20046;-79
2022/07/25 05:59:08;;;;;;;0.65;0.63;;;;;;;23.58;50.04;100286.22;5152201;28;20034;-79
2022/07/25 06:01:39;;;;;;;4.13;2.00;;;;;;;23.64;49.92;100283.97;5172353;28;20041;-79
2022/07/25 06:04:10;;;;;;;1.58;1.00;;;;;;;23.65;50.10;100282.97;5195861;28;20045;-80
2022/07/25 06:06:41;;;;;;;0.65;0.65;;;;;;;23.70;49.72;100280.72;5177570;28;20072;-80
2022/07/25 06:09:12;;;;;;;1.20;0.52;;;;;;;23.77;49.71;100281.03;5157439;28;20049;-79
2022/07/25 06:11:55;;;;;;;1.55;0.93;;;;;;;23.80;49.68;100278.91;5158615;28;20049;-79
2022/07/25 06:14:28;;;;;;;0.50;0.50;;;;;;;23.83;50.17;100285.81;5167404;28;20037;-80
2022/07/25 06:16:59;;;;;;;2.60;1.13;;;;;;;23.88;49.54;100279.06;5159286;28;20112;-79
2022/07/25 06:19:29;;;;;;;0.30;0.30;;;;;;;23.93;49.83;100284.00;5172216;28;20105;-79
2022/07/25 06:22:00;;;;;;;2.05;1.63;;;;;;;23.93;50.02;100289.38;5160329;28;20028;-81
2022/07/25 06:24:34;;;;;;;0.22;0.22;;;;;;;24.00;50.68;100279.81;5169889;28;20034;-80
2022/07/25 06:27:14;;;;;;;1.50;1.40;;;;;;;24.03;50.03;100278.69;5179968;28;20029;-80
2022/07/25 06:29:45;;;;;;;0.82;0.75;;;;;;;24.11;49.81;100284.19;5163806;28;20462;-80
2022/07/25 06:32:15;;;;;;;2.03;1.20;;;;;;;24.15;50.27;100280.25;5194250;28;20033;-80
2022/07/25 06:34:46;;;;;;;0.85;0.65;;;;;;;24.15;49.87;100280.25;5174254;28;20049;-80
2022/07/25 06:37:16;;;;;;;0.30;0.30;;;;;;;24.21;49.95;100289.56;5162396;28;20029;-81
2022/07/25 06:39:47;;;;;;;0.60;0.60;;;;;;;24.25;49.72;100274.06;5164658;28;20037;-81
2022/07/25 06:42:21;;;;;;;1.27;1.17;;;;;;;24.33;49.44;100277.72;5168367;28;20025;-80
2022/07/25 06:44:54;;;;;;;0.75;0.73;;;;;;;24.33;49.83;100276.88;5159395;28;20087;-80
2022/07/25 06:47:24;;;;;;;1.23;0.90;;;;;;;24.39;49.24;100276.28;5180302;28;20038;-80
2022/07/25 06:49:55;;;;;;;0.45;0.45;;;;;;;24.44;49.29;100274.03;5185854;28;20061;-80
2022/07/25 06:52:26;;;;;;;0.70;0.70;;;;;;;24.44;49.59;100274.03;5156350;28;20067;-80
2022/07/25 06:54:57;;;;;;;0.65;0.65;;;;;;;24.47;49.06;100263.03;5158694;28;20084;-80
2022/07/25 06:57:27;;;;;;;0.30;0.30;;;;;;;24.56;49.29;100269.34;5173051;28;20021;-81
2022/07/25 06:59:58;;;;;;;0.98;0.98;;;;;;;24.60;49.11;100265.41;5171678;28;20338;-80
2022/07/25 07:02:29;;;;;;;1.15;1.08;;;;;;;24.66;49.06;100280.06;5178286;28;20529;-80
2022/07/25 07:05:00;;;;;;;0.63;0.52;;;;;;;24.66;49.03;100280.06;5157918;28;20097;-80
2022/07/25 07:07:30;;;;;;;0.43;0.43;;;;;;;24.70;48.76;100270.78;5164094;28;20029;-80
2022/07/25 07:10:04;;;;;;;0.88;0.88;;;;;;;24.75;49.19;100259.59;5184819;28;20182;-80
2022/07/25 07:12:35;;;;;;;0.47;0.47;;;;;;;24.80;48.92;100255.50;5156665;28;20069;-81
2022/07/25 07:15:09;;;;;;;1.52;1.42;;;;;;;24.89;48.71;100263.66;5180743;28;20157;-80
2022/07/25 07:17:43;;;;;;;0.50;0.50;;;;;;;24.88;49.02;100261.97;5170821;28;20224;-80
2022/07/25 07:20:15;;;;;;;0.30;0.30;;;;;;;24.98;48.57;100265.47;5171276;28;20124;-81
2022/07/25 07:22:50;;;;;;;0.32;0.32;;;;;;;25.07;48.78;100267.28;5188479;28;20018;-81
2022/07/25 07:25:22;;;;;;;13.05;0.68;;;;;;;25.07;49.07;100275.34;5190430;28;20041;-81
2022/07/25 07:27:53;;;;;;;1.20;1.02;;;;;;;25.23;48.59;100272.00;5155596;28;20038;-81
2022/07/25 07:30:23;;;;;;;0.50;0.50;;;;;;;25.25;48.69;100269.16;5159245;28;20569;-81
2022/07/25 07:32:54;;;;;;;1.00;0.90;;;;;;;25.24;48.58;100271.00;5156196;28;20026;-80
2022/07/25 07:35:24;;;;;;;1.40;0.70;;;;;;;25.25;48.52;100278.06;5154618;28;20042;-80
2022/07/25 07:37:55;;;;;;;0.28;0.28;;;;;;;25.30;48.72;100274.94;5173337;28;20030;-80
2022/07/25 07:40:26;;;;;;;1.58;0.73;;;;;;;25.30;48.00;100275.78;5172722;28;20046;-81
2022/07/25 07:43:11;;;;;;;;;;;;;;;;;;;;;
2022/07/25 07:45:42;;;;;;;1.73;1.50;;;;;;;25.42;48.36;100276.47;5185258;28;20518;-81
2022/07/25 07:48:15;;;;;;;0.88;0.60;;;;;;;25.46;48.48;100285.06;5155241;28;20031;-81
2022/07/25 07:50:51;;;;;;;0.70;0.70;;;;;;;25.49;48.64;100283.94;5172058;28;20122;-82
2022/07/25 07:53:21;;;;;;;9.13;0.60;;;;;;;25.53;49.00;100271.88;5173104;28;20105;-80
2022/07/25 07:55:54;;;;;;;0.52;0.52;;;;;;;25.59;48.39;100282.03;5173388;28;20045;-80
2022/07/25 07:58:24;;;;;;;0.73;0.73;;;;;;;25.63;47.93;100274.50;5176226;28;20033;-81
2022/07/25 08:00:55;;;;;;;0.50;0.50;;;;;;;25.64;47.13;100282.44;5175608;28;20382;-81
2022/07/25 08:03:26;;;;;;;3.25;0.98;;;;;;;25.69;47.64;100290.88;5175566;28;20301;-81
2022/07/25 08:05:57;;;;;;;0.95;0.90;;;;;;;25.75;47.23;100284.06;5175502;28;20503;-81
2022/07/25 08:08:28;;;;;;;0.75;0.60;;;;;;;25.80;46.78;100288.97;5150770;28;20091;-81
2022/07/25 08:10:59;;;;;;;0.60;0.55;;;;;;;25.72;45.78;100295.97;5155427;28;20045;-82
2022/07/25 08:13:32;;;;;;;0.45;0.45;;;;;;;25.76;46.09;100293.81;5161319;28;20026;-82
2022/07/25 08:16:14;;;;;;;0.50;0.50;;;;;;;25.81;46.24;100290.69;5153199;28;20481;-80
2022/07/25 08:18:44;;;;;;;0.98;0.98;;;;;;;25.71;45.73;100283.53;5169831;28;20032;-81
2022/07/25 08:21:15;;;;;;;1.38;1.20;;;;;;;25.73;45.33;100284.22;5170821;28;20069;-81
2022/07/25 08:23:46;;;;;;;0.52;0.52;;;;;;;25.77;45.83;100285.59;5153257;28;20053;-82
2022/07/25 08:26:17;;;;;;;0.63;0.63;;;;;;;25.77;45.81;100282.91;5150501;28;20072;-81
2022/07/25 08:28:48;;;;;;;4.30;1.85;;;;;;;25.80;45.56;100284.44;5154939;28;20021;-81
2022/07/25 08:31:21;;;;;;;0.50;0.50;;;;;;;25.73;45.15;100289.59;5159302;28;20315;-81
2022/07/25 08:33:52;;;;;;;0.65;0.65;;;;;;;25.80;45.30;100300.56;5163561;28;20394;-80
2022/07/25 08:36:23;;;;;;;0.52;0.45;;;;;;;25.75;45.41;100295.63;5159893;28;20037;-80
2022/07/25 08:38:54;;;;;;;0.52;0.52;;;;;;;25.70;45.30;100295.25;5193179;28;20018;-80
2022/07/25 08:41:25;;;;;;;0.52;0.52;;;;;;;25.70;45.45;100292.56;5188069;28;20666;-81
2022/07/25 08:43:56;;;;;;;0.88;0.82;;;;;;;25.62;45.69;100281.72;5192306;28;20056;-81
2022/07/25 08:46:28;;;;;;;1.73;1.60;;;;;;;25.70;45.59;100291.75;5189497;28;20042;-81
2022/07/25 08:48:59;;;;;;;0.68;0.68;;;;;;;25.66;45.72;100291.16;5168879;28;20063;-78
2022/07/25 08:51:32;;;;;;;1.13;0.82;;;;;;;25.72;46.11;100293.28;5201436;28;20042;-80
2022/07/25 08:54:03;;;;;;;0.88;0.88;;;;;;;25.76;45.75;100293.81;5177282;28;20100;-80
2022/07/25 08:56:34;;;;;;;0.63;0.63;;;;;;;25.77;45.78;100290.97;5176530;28;20050;-80
2022/07/25 08:59:11;;;;;;;0.60;0.60;;;;;;;25.82;45.79;100303.94;5160762;28;20029;-79
2022/07/25 09:01:41;;;;;;;0.73;0.73;;;;;;;25.77;46.01;100306.25;5192215;28;20128;-79
2022/07/25 09:04:12;;;;;;;0.85;0.73;;;;;;;25.84;46.24;100303.78;5180185;28;20050;-79
2022/07/25 09:06:50;;;;;;;0.47;0.47;;;;;;;25.74;46.43;100302.00;5189755;28;20589;-81
2022/07/25 09:09:32;;;;;;;0.65;0.65;;;;;;;25.75;46.43;100302.88;5172000;28;20029;-81
2022/07/25 09:12:15;;;;;;;1.33;0.40;;;;;;;25.84;46.24;100303.78;5182405;28;20038;-80
2022/07/25 09:14:47;;;;;;;0.82;0.82;;;;;;;26.01;45.37;100311.03;5188133;28;20041;-83
2022/07/25 09:17:18;;;;;;;0.45;0.45;;;;;;;25.91;45.33;100312.94;5167642;28;20345;-82
2022/07/25 09:19:54;;;;;;;0.52;0.52;;;;;;;26.02;45.77;100312.72;5171301;28;20037;-80
2022/07/25 09:22:26;;;;;;;0.70;0.70;;;;;;;25.98;46.09;100314.03;5174759;28;20061;-80
2022/07/25 09:24:59;;;;;;;0.60;0.60;;;;;;;25.89;45.48;100321.16;5199035;28;20061;-79
2022/07/25 09:27:33;;;;;;;0.75;0.63;;;;;;;26.12;44.96;100326.13;5179798;28;20567;-80
2022/07/25 09:30:14;;;;;;;0.25;0.25;;;;;;;26.11;45.33;100337.03;5174279;28;20053;-80
2022/07/25 09:32:57;;;;;;;0.65;0.65;;;;;;;26.12;45.44;100327.97;5188294;28;20029;-83
2022/07/25 09:35:33;;;;;;;1.23;0.88;;;;;;;26.03;45.73;100335.94;5185034;28;20587;-81
2022/07/25 09:38:12;;;;;;;1.27;0.68;;;;;;;26.07;45.00;100331.91;5201479;28;20053;-82
2022/07/25 09:41:01;;;;;;;1.45;0.95;;;;;;;26.06;45.11;100341.00;5216839;28;20037;-82
2022/07/25 09:43:37;;;;;;;0.40;0.40;;;;;;;26.10;44.83;100351.47;5203468;28;20030;-81
2022/07/25 09:46:13;;;;;;;0.60;0.60;;;;;;;26.14;44.85;100358.25;5195211;28;20033;-85
2022/07/25 09:48:57;;;;;;;2.03;0.95;;;;;;;26.00;44.17;100352.34;5188056;28;20068;-82
2022/07/25 09:51:28;;;;;;;0.55;0.55;;;;;;;26.10;44.71;100356.84;5142916;28;20136;-82
2022/07/25 09:53:58;;;;;;;0.70;0.70;;;;;;;25.91;43.79;100362.16;5160757;28;20104;-81
2022/07/25 09:56:29;;;;;;;1.17;1.00;;;;;;;25.96;43.88;100367.09;5194581;28;20472;-82
2022/07/25 09:59:01;;;;;;;0.28;0.28;;;;;;;25.97;44.05;100371.47;5198265;28;20026;-82
2022/07/25 10:01:41;;;;;;;0.38;0.38;;;;;;;25.81;43.91;100384.72;5146763;28;20130;-82
2022/07/25 10:04:21;;;;;;;0.30;0.30;;;;;;;25.90;44.23;100373.06;5190177;28;20037;-82
2022/07/25 10:07:13;;;;;;;0.30;0.30;;;;;;;25.90;43.56;100370.41;5190237;28;20076;-82
2022/07/25 10:09:46;;;;;;;0.40;0.40;;;;;;;25.91;43.21;100364.84;5187238;28;20049;-80
2022/07/25 10:12:22;;;;;;;7.57;2.05;;;;;;;25.76;44.03;100361.81;5197431;28;20021;-82
2022/07/25 10:15:04;;;;;;;0.20;0.20;;;;;;;25.72;43.73;100348.84;5192295;28;20046;-81
2022/07/25 10:17:36;;;;;;;0.53;0.53;;;;;;;25.74;43.49;100353.06;5166503;28;20053;-81
2022/07/25 10:20:09;;;;;;;0.70;0.70;;;;;;;25.67;43.37;100340.38;5170886;28;20280;-81
2022/07/25 10:22:44;;;;;;;0.63;0.63;;;;;;;25.63;43.62;100329.09;5191890;28;20032;-81
2022/07/25 10:25:18;;;;;;;1.55;1.17;;;;;;;25.64;44.03;100341.53;5199680;28;20044;-80
2022/07/25 10:27:51;;;;;;;1.75;0.43;;;;;;;25.75;43.65;100327.88;5195762;28;20464;-81
2022/07/25 10:30:24;;;;;;;0.93;0.55;;;;;;;25.84;43.26;100326.16;5172077;28;20127;-82
2022/07/25 10:33:02;;;;;;;0.30;0.30;;;;;;;25.85;42.30;100322.47;5165701;28;20531;-81
2022/07/25 10:35:33;;;;;;;0.70;0.70;;;;;;;25.88;42.87;100334.75;5169526;28;20073;-82
2022/07/25 10:38:09;;;;;;;0.45;0.45;;;;;;;25.85;42.36;100333.22;5177774;28;20563;-81
2022/07/25 10:40:45;;;;;;;0.32;0.32;;;;;;;25.84;42.56;100336.03;5198335;28;20469;-82
2022/07/25 10:43:21;;;;;;;0.82;0.60;;;;;;;25.85;41.28;100356.53;5182291;28;20033;-83
2022/07/25 10:45:56;;;;;;;0.52;0.50;;;;;;;25.85;41.26;100348.47;5150689;28;20422;-81
2022/07/25 10:48:31;;;;;;;0.95;0.85;;;;;;;25.90;41.00;100347.03;5166187;28;20040;-81
2022/07/25 10:51:09;;;;;;;0.45;0.30;;;;;;;26.02;41.96;100353.03;5172673;28;20029;-80
2022/07/25 10:53:45;;;;;;;0.30;0.30;;;;;;;25.91;40.82;100359.47;5156440;28;20038;-82
2022/07/25 10:56:25;;;;;;;0.55;0.52;;;;;;;26.01;40.95;100361.28;5160265;28;20037;-81
2022/07/25 10:59:07;;;;;;;0.43;0.32;;;;;;;26.09;41.44;100364.06;5182353;28;20449;-81
2022/07/25 11:01:40;;;;;;;0.20;0.20;;;;;;;26.15;41.41;100360.78;5161750;28;20276;-81
2022/07/25 11:04:15;;;;;;;0.22;0.22;;;;;;;26.22;41.27;100361.84;5176579;28;20450;-81
2022/07/25 11:06:45;;;;;;;0.28;0.28;;;;;;;26.33;41.54;100346.50;5185130;28;20046;-82
2022/07/25 11:09:24;;;;;;;0.43;0.43;;;;;;;26.47;41.54;100350.50;5187080;28;20077;-81
2022/07/25 11:11:57;;;;;;;1.50;1.02;;;;;;;26.38;41.11;100350.41;5171862;28;20042;-81
2022/07/25 11:14:40;;;;;;;0.40;0.30;;;;;;;26.38;40.83;100357.63;5199237;28;20033;-80
2022/07/25 11:17:15;;;;;;;0.20;0.20;;;;;;;26.51;41.71;100362.63;5181037;28;20119;-82
2022/07/25 11:20:00;;;;;;;1.80;0.93;;;;;;;26.62;40.96;100362.38;5174160;28;20060;-82
2022/07/25 11:22:32;;;;;;;0.30;0.30;;;;;;;26.61;41.42;100360.69;5161527;28;20064;-82
2022/07/25 11:25:15;;;;;;;0.60;0.60;;;;;;;26.56;41.25;100368.41;5155981;28;20137;-81
2022/07/25 11:27:54;;;;;;;1.27;0.80;;;;;;;26.48;40.92;100368.31;5158052;28;20338;-81
2022/07/25 11:30:31;;;;;;;0.25;0.25;;;;;;;26.64;41.45;100363.09;5187111;28;20042;-81
2022/07/25 11:33:01;;;;;;;0.20;0.20;;;;;;;26.71;41.09;100363.28;5168610;28;20052;-82
2022/07/25 11:35:32;;;;;;;0.65;0.57;;;;;;;26.56;41.08;100376.47;5192246;28;20041;-82
2022/07/25 11:38:03;;;;;;;2.88;1.50;;;;;;;26.63;41.90;100364.09;5212798;28;20037;-81
2022/07/25 11:40:42;;;;;;;0.30;0.30;;;;;;;26.64;41.43;100367.59;5175037;28;20065;-81
2022/07/25 11:43:25;;;;;;;0.35;0.35;;;;;;;26.64;41.69;100365.78;5191512;28;20128;-82
2022/07/25 11:46:07;;;;;;;0.30;0.30;;;;;;;26.76;41.86;100370.91;5169414;28;20502;-82
2022/07/25 11:48:42;;;;;;;0.52;0.52;;;;;;;26.70;41.96;100367.84;5180332;28;20525;-81
2022/07/25 11:51:15;;;;;;;1.38;1.00;;;;;;;26.83;42.71;100363.91;5159015;28;20038;-81
2022/07/25 11:53:48;;;;;;;0.65;0.38;;;;;;;26.84;42.44;100360.22;5168780;28;20021;-81
2022/07/25 11:56:22;;;;;;;0.60;0.50;;;;;;;26.90;42.42;100367.66;5175152;28;20045;-82
2022/07/25 11:59:03;;;;;;;0.77;0.75;;;;;;;26.93;42.85;100363.84;5187363;28;21441;-80